sensor_id;sensor_type;location;lat;lon;timestamp;P1;durP1;ratioP1;P2;durP2;ratioP2
2305;SDS011;1161;51.922;8.896;2022-08-04T00:02:17;4.03;;;3.57;;
2305;SDS011;1161;51.922;8.896;2022-08-04T00:04:48;6.50;;;3.30;;
2305;SDS011;1161;51.922;8.896;2022-08-04T00:07:18;3.63;;;3.30;;
2305;SDS011;1161;51.922;8.896;2022-08-04T00:09:50;4.57;;;3.90;;
2305;SDS011;1161;51.922;8.896;2022-08-04T00:12:19;4.00;;;3.60;;
2305;SDS011;1161;51.922;8.896;2022-08-04T00:14:48;4.97;;;4.47;;
2305;SDS011;1161;51.922;8.896;2022-08-04T00:17:17;4.30;;;3.33;;
2305;SDS011;1161;51.922;8.896;2022-08-04T00:19:46;5.33;;;3.67;;
2305;SDS011;1161;51.922;8.896;2022-08-04T00:22:13;3.40;;;3.10;;
2305;SDS011;1161;51.922;8.896;2022-08-04T00:24:43;5.90;;;3.90;;
2305;SDS011;1161;51.922;8.896;2022-08-04T00:27:10;3.80;;;3.40;;
2305;SDS011;1161;51.922;8.896;2022-08-04T00:29:39;4.80;;;3.27;;
2305;SDS011;1161;51.922;8.896;2022-08-04T00:32:06;11.33;;;4.90;;
2305;SDS011;1161;51.922;8.896;2022-08-04T00:34:34;11.87;;;4.27;;
2305;SDS011;1161;51.922;8.896;2022-08-04T00:37:01;11.07;;;3.90;;
2305;SDS011;1161;51.922;8.896;2022-08-04T00:39:29;7.37;;;3.53;;
2305;SDS011;1161;51.922;8.896;2022-08-04T00:42:12;11.13;;;4.03;;
2305;SDS011;1161;51.922;8.896;2022-08-04T00:44:50;7.03;;;3.67;;
2305;SDS011;1161;51.922;8.896;2022-08-04T00:47:30;4.63;;;3.07;;
2305;SDS011;1161;51.922;8.896;2022-08-04T00:50:06;10.03;;;4.90;;
2305;SDS011;1161;51.922;8.896;2022-08-04T00:55:25;10.43;;;3.10;;
2305;SDS011;1161;51.922;8.896;2022-08-04T00:58:02;4.83;;;3.70;;
2305;SDS011;1161;51.922;8.896;2022-08-04T01:00:39;4.27;;;3.87;;
2305;SDS011;1161;51.922;8.896;2022-08-04T01:03:12;3.77;;;3.47;;
2305;SDS011;1161;51.922;8.896;2022-08-04T01:05:44;4.10;;;3.70;;
2305;SDS011;1161;51.922;8.896;2022-08-04T01:08:23;5.07;;;4.57;;
2305;SDS011;1161;51.922;8.896;2022-08-04T01:11:03;8.90;;;3.90;;
2305;SDS011;1161;51.922;8.896;2022-08-04T01:13:40;7.77;;;5.07;;
2305;SDS011;1161;51.922;8.896;2022-08-04T01:16:19;4.80;;;3.77;;
2305;SDS011;1161;51.922;8.896;2022-08-04T01:18:52;7.33;;;3.43;;
2305;SDS011;1161;51.922;8.896;2022-08-04T01:21:39;3.63;;;3.33;;
2305;SDS011;1161;51.922;8.896;2022-08-04T01:24:18;7.90;;;4.00;;
2305;SDS011;1161;51.922;8.896;2022-08-04T01:26:52;4.50;;;4.10;;
2305;SDS011;1161;51.922;8.896;2022-08-04T01:29:22;5.60;;;3.30;;
2305;SDS011;1161;51.922;8.896;2022-08-04T01:31:59;17.37;;;3.63;;
2305;SDS011;1161;51.922;8.896;2022-08-04T01:34:27;4.60;;;3.90;;
2305;SDS011;1161;51.922;8.896;2022-08-04T01:36:59;4.57;;;4.13;;
2305;SDS011;1161;51.922;8.896;2022-08-04T01:39:32;8.00;;;4.53;;
2305;SDS011;1161;51.922;8.896;2022-08-04T01:42:06;14.83;;;3.80;;
2305;SDS011;1161;51.922;8.896;2022-08-04T01:44:36;4.53;;;4.13;;
2305;SDS011;1161;51.922;8.896;2022-08-04T01:47:03;5.13;;;3.67;;
2305;SDS011;1161;51.922;8.896;2022-08-04T01:49:31;4.10;;;3.60;;
2305;SDS011;1161;51.922;8.896;2022-08-04T01:51:58;5.20;;;3.40;;
2305;SDS011;1161;51.922;8.896;2022-08-04T01:54:25;7.60;;;4.57;;
2305;SDS011;1161;51.922;8.896;2022-08-04T01:56:53;5.90;;;3.83;;
2305;SDS011;1161;51.922;8.896;2022-08-04T01:59:20;5.57;;;3.43;;
2305;SDS011;1161;51.922;8.896;2022-08-04T02:01:49;5.10;;;4.60;;
2305;SDS011;1161;51.922;8.896;2022-08-04T02:04:17;6.50;;;4.07;;
2305;SDS011;1161;51.922;8.896;2022-08-04T02:06:48;3.77;;;3.33;;
2305;SDS011;1161;51.922;8.896;2022-08-04T02:09:21;9.53;;;4.40;;
2305;SDS011;1161;51.922;8.896;2022-08-04T02:11:52;9.40;;;3.87;;
2305;SDS011;1161;51.922;8.896;2022-08-04T02:14:27;9.70;;;4.70;;
2305;SDS011;1161;51.922;8.896;2022-08-04T02:17:11;11.37;;;4.33;;
2305;SDS011;1161;51.922;8.896;2022-08-04T02:19:44;4.57;;;3.37;;
2305;SDS011;1161;51.922;8.896;2022-08-04T02:22:18;8.90;;;3.90;;
2305;SDS011;1161;51.922;8.896;2022-08-04T02:24:49;4.13;;;3.70;;
2305;SDS011;1161;51.922;8.896;2022-08-04T02:27:16;5.90;;;3.53;;
2305;SDS011;1161;51.922;8.896;2022-08-04T02:29:45;8.20;;;4.43;;
2305;SDS011;1161;51.922;8.896;2022-08-04T02:32:18;7.77;;;4.30;;
2305;SDS011;1161;51.922;8.896;2022-08-04T02:34:47;4.87;;;4.47;;
2305;SDS011;1161;51.922;8.896;2022-08-04T02:37:19;3.83;;;3.57;;
2305;SDS011;1161;51.922;8.896;2022-08-04T02:39:47;15.53;;;4.50;;
2305;SDS011;1161;51.922;8.896;2022-08-04T02:42:18;4.00;;;3.63;;
2305;SDS011;1161;51.922;8.896;2022-08-04T02:44:47;7.43;;;3.80;;
2305;SDS011;1161;51.922;8.896;2022-08-04T02:47:24;4.67;;;3.67;;
2305;SDS011;1161;51.922;8.896;2022-08-04T02:49:52;5.70;;;3.83;;
2305;SDS011;1161;51.922;8.896;2022-08-04T02:52:20;5.77;;;5.17;;
2305;SDS011;1161;51.922;8.896;2022-08-04T02:54:49;9.23;;;3.97;;
2305;SDS011;1161;51.922;8.896;2022-08-04T02:57:18;8.40;;;4.10;;
2305;SDS011;1161;51.922;8.896;2022-08-04T02:59:52;5.33;;;3.27;;
2305;SDS011;1161;51.922;8.896;2022-08-04T03:02:47;7.10;;;4.20;;
2305;SDS011;1161;51.922;8.896;2022-08-04T03:05:20;3.73;;;3.43;;
2305;SDS011;1161;51.922;8.896;2022-08-04T03:07:57;3.63;;;3.10;;
2305;SDS011;1161;51.922;8.896;2022-08-04T03:10:46;12.70;;;4.50;;
2305;SDS011;1161;51.922;8.896;2022-08-04T03:13:53;4.97;;;4.47;;
2305;SDS011;1161;51.922;8.896;2022-08-04T03:16:31;5.50;;;3.60;;
2305;SDS011;1161;51.922;8.896;2022-08-04T03:22:17;6.47;;;4.70;;
2305;SDS011;1161;51.922;8.896;2022-08-04T03:28:02;6.30;;;3.93;;
2305;SDS011;1161;51.922;8.896;2022-08-04T03:31:04;17.20;;;4.33;;
2305;SDS011;1161;51.922;8.896;2022-08-04T03:33:38;9.70;;;4.40;;
2305;SDS011;1161;51.922;8.896;2022-08-04T03:36:24;6.53;;;3.80;;
2305;SDS011;1161;51.922;8.896;2022-08-04T03:39:13;8.13;;;5.17;;
2305;SDS011;1161;51.922;8.896;2022-08-04T03:42:03;7.67;;;5.23;;
2305;SDS011;1161;51.922;8.896;2022-08-04T03:44:46;9.20;;;5.00;;
2305;SDS011;1161;51.922;8.896;2022-08-04T03:47:50;7.17;;;4.60;;
2305;SDS011;1161;51.922;8.896;2022-08-04T03:53:12;5.70;;;4.07;;
2305;SDS011;1161;51.922;8.896;2022-08-04T03:59:23;10.93;;;4.67;;
2305;SDS011;1161;51.922;8.896;2022-08-04T04:05:18;12.30;;;5.80;;
2305;SDS011;1161;51.922;8.896;2022-08-04T04:08:20;8.10;;;4.50;;
2305;SDS011;1161;51.922;8.896;2022-08-04T04:11:22;10.67;;;5.03;;
2305;SDS011;1161;51.922;8.896;2022-08-04T04:14:17;9.77;;;4.37;;
2305;SDS011;1161;51.922;8.896;2022-08-04T04:20:04;11.20;;;5.20;;
2305;SDS011;1161;51.922;8.896;2022-08-04T04:22:43;7.43;;;4.63;;
2305;SDS011;1161;51.922;8.896;2022-08-04T04:25:27;8.70;;;4.70;;
2305;SDS011;1161;51.922;8.896;2022-08-04T04:28:22;9.40;;;4.90;;
2305;SDS011;1161;51.922;8.896;2022-08-04T04:30:59;7.27;;;4.43;;
2305;SDS011;1161;51.922;8.896;2022-08-04T04:33:36;6.67;;;4.57;;
2305;SDS011;1161;51.922;8.896;2022-08-04T04:36:08;7.03;;;5.30;;
2305;SDS011;1161;51.922;8.896;2022-08-04T04:38:44;5.80;;;5.37;;
2305;SDS011;1161;51.922;8.896;2022-08-04T04:41:35;8.50;;;5.50;;
2305;SDS011;1161;51.922;8.896;2022-08-04T04:44:30;12.77;;;5.47;;
2305;SDS011;1161;51.922;8.896;2022-08-04T04:47:30;7.80;;;5.23;;
2305;SDS011;1161;51.922;8.896;2022-08-04T04:50:03;17.43;;;6.20;;
2305;SDS011;1161;51.922;8.896;2022-08-04T04:52:35;8.00;;;6.03;;
2305;SDS011;1161;51.922;8.896;2022-08-04T04:55:09;11.07;;;6.60;;
2305;SDS011;1161;51.922;8.896;2022-08-04T04:57:41;7.60;;;5.13;;
2305;SDS011;1161;51.922;8.896;2022-08-04T05:00:12;7.97;;;6.17;;
2305;SDS011;1161;51.922;8.896;2022-08-04T05:02:43;14.83;;;5.37;;
2305;SDS011;1161;51.922;8.896;2022-08-04T05:05:26;10.37;;;6.27;;
2305;SDS011;1161;51.922;8.896;2022-08-04T05:10:50;6.30;;;5.20;;
2305;SDS011;1161;51.922;8.896;2022-08-04T05:13:34;11.80;;;4.90;;
2305;SDS011;1161;51.922;8.896;2022-08-04T05:16:05;13.03;;;5.40;;
2305;SDS011;1161;51.922;8.896;2022-08-04T05:18:36;6.93;;;5.67;;
2305;SDS011;1161;51.922;8.896;2022-08-04T05:21:08;8.47;;;5.20;;
2305;SDS011;1161;51.922;8.896;2022-08-04T05:23:46;6.97;;;4.47;;
2305;SDS011;1161;51.922;8.896;2022-08-04T05:26:15;6.63;;;4.60;;
2305;SDS011;1161;51.922;8.896;2022-08-04T05:28:50;15.43;;;5.83;;
2305;SDS011;1161;51.922;8.896;2022-08-04T05:31:20;6.80;;;4.47;;
2305;SDS011;1161;51.922;8.896;2022-08-04T05:33:51;8.77;;;5.63;;
2305;SDS011;1161;51.922;8.896;2022-08-04T05:36:22;11.90;;;5.80;;
2305;SDS011;1161;51.922;8.896;2022-08-04T05:38:52;11.13;;;4.83;;
2305;SDS011;1161;51.922;8.896;2022-08-04T05:41:20;5.67;;;4.00;;
2305;SDS011;1161;51.922;8.896;2022-08-04T05:43:50;5.03;;;3.80;;
2305;SDS011;1161;51.922;8.896;2022-08-04T05:46:17;5.40;;;4.90;;
2305;SDS011;1161;51.922;8.896;2022-08-04T05:48:45;9.97;;;4.90;;
2305;SDS011;1161;51.922;8.896;2022-08-04T05:51:13;5.93;;;4.30;;
2305;SDS011;1161;51.922;8.896;2022-08-04T05:53:42;6.60;;;5.63;;
2305;SDS011;1161;51.922;8.896;2022-08-04T05:56:12;17.43;;;5.60;;
2305;SDS011;1161;51.922;8.896;2022-08-04T05:58:41;16.83;;;4.97;;
2305;SDS011;1161;51.922;8.896;2022-08-04T06:01:09;8.33;;;4.83;;
2305;SDS011;1161;51.922;8.896;2022-08-04T06:03:38;9.50;;;5.30;;
2305;SDS011;1161;51.922;8.896;2022-08-04T06:06:08;10.10;;;5.63;;
2305;SDS011;1161;51.922;8.896;2022-08-04T06:08:38;7.00;;;5.33;;
2305;SDS011;1161;51.922;8.896;2022-08-04T06:11:07;6.80;;;4.80;;
2305;SDS011;1161;51.922;8.896;2022-08-04T06:13:41;19.23;;;5.97;;
2305;SDS011;1161;51.922;8.896;2022-08-04T06:16:11;11.90;;;4.90;;
2305;SDS011;1161;51.922;8.896;2022-08-04T06:18:39;7.47;;;4.83;;
2305;SDS011;1161;51.922;8.896;2022-08-04T06:21:07;7.40;;;4.60;;
2305;SDS011;1161;51.922;8.896;2022-08-04T06:23:36;9.40;;;5.07;;
2305;SDS011;1161;51.922;8.896;2022-08-04T06:26:04;7.90;;;5.23;;
2305;SDS011;1161;51.922;8.896;2022-08-04T06:28:32;9.77;;;4.83;;
2305;SDS011;1161;51.922;8.896;2022-08-04T06:30:59;14.83;;;5.00;;
2305;SDS011;1161;51.922;8.896;2022-08-04T06:33:31;4.50;;;4.10;;
2305;SDS011;1161;51.922;8.896;2022-08-04T06:35:59;7.70;;;4.33;;
2305;SDS011;1161;51.922;8.896;2022-08-04T06:38:27;7.93;;;4.40;;
2305;SDS011;1161;51.922;8.896;2022-08-04T06:40:55;5.67;;;4.30;;
2305;SDS011;1161;51.922;8.896;2022-08-04T06:43:23;13.50;;;5.30;;
2305;SDS011;1161;51.922;8.896;2022-08-04T06:45:57;8.30;;;4.63;;
2305;SDS011;1161;51.922;8.896;2022-08-04T06:48:26;10.83;;;5.50;;
2305;SDS011;1161;51.922;8.896;2022-08-04T06:50:55;6.67;;;4.20;;
2305;SDS011;1161;51.922;8.896;2022-08-04T06:53:21;5.17;;;4.57;;
2305;SDS011;1161;51.922;8.896;2022-08-04T06:55:48;4.33;;;3.80;;
2305;SDS011;1161;51.922;8.896;2022-08-04T06:58:16;8.10;;;4.20;;
2305;SDS011;1161;51.922;8.896;2022-08-04T07:00:43;6.27;;;4.27;;
2305;SDS011;1161;51.922;8.896;2022-08-04T07:03:12;8.17;;;4.20;;
2305;SDS011;1161;51.922;8.896;2022-08-04T07:05:39;7.37;;;4.50;;
2305;SDS011;1161;51.922;8.896;2022-08-04T07:08:08;8.40;;;4.10;;
2305;SDS011;1161;51.922;8.896;2022-08-04T07:10:35;5.00;;;4.10;;
2305;SDS011;1161;51.922;8.896;2022-08-04T07:13:02;5.80;;;4.73;;
2305;SDS011;1161;51.922;8.896;2022-08-04T07:15:29;7.63;;;4.87;;
2305;SDS011;1161;51.922;8.896;2022-08-04T07:17:58;8.43;;;5.40;;
2305;SDS011;1161;51.922;8.896;2022-08-04T07:20:27;6.10;;;3.67;;
2305;SDS011;1161;51.922;8.896;2022-08-04T07:22:54;4.33;;;4.03;;
2305;SDS011;1161;51.922;8.896;2022-08-04T07:25:24;4.37;;;3.90;;
2305;SDS011;1161;51.922;8.896;2022-08-04T07:27:51;4.67;;;4.37;;
2305;SDS011;1161;51.922;8.896;2022-08-04T07:30:17;9.30;;;4.40;;
2305;SDS011;1161;51.922;8.896;2022-08-04T07:32:44;5.50;;;4.33;;
2305;SDS011;1161;51.922;8.896;2022-08-04T07:35:11;9.30;;;4.23;;
2305;SDS011;1161;51.922;8.896;2022-08-04T07:37:38;5.00;;;4.13;;
2305;SDS011;1161;51.922;8.896;2022-08-04T07:40:05;16.10;;;5.17;;
2305;SDS011;1161;51.922;8.896;2022-08-04T07:42:34;5.00;;;4.17;;
2305;SDS011;1161;51.922;8.896;2022-08-04T07:45:00;5.57;;;4.27;;
2305;SDS011;1161;51.922;8.896;2022-08-04T07:47:27;14.00;;;4.33;;
2305;SDS011;1161;51.922;8.896;2022-08-04T07:49:54;4.37;;;3.97;;
2305;SDS011;1161;51.922;8.896;2022-08-04T07:52:21;8.27;;;4.73;;
2305;SDS011;1161;51.922;8.896;2022-08-04T07:54:48;4.33;;;3.70;;
2305;SDS011;1161;51.922;8.896;2022-08-04T07:57:15;6.10;;;3.90;;
2305;SDS011;1161;51.922;8.896;2022-08-04T07:59:46;6.87;;;4.57;;
2305;SDS011;1161;51.922;8.896;2022-08-04T08:02:13;10.30;;;4.17;;
2305;SDS011;1161;51.922;8.896;2022-08-04T08:04:40;5.57;;;4.67;;
2305;SDS011;1161;51.922;8.896;2022-08-04T08:07:06;9.67;;;3.87;;
2305;SDS011;1161;51.922;8.896;2022-08-04T08:09:33;10.13;;;5.00;;
2305;SDS011;1161;51.922;8.896;2022-08-04T08:12:00;12.50;;;4.97;;
2305;SDS011;1161;51.922;8.896;2022-08-04T08:14:27;5.87;;;3.70;;
2305;SDS011;1161;51.922;8.896;2022-08-04T08:16:55;8.90;;;4.10;;
2305;SDS011;1161;51.922;8.896;2022-08-04T08:19:23;4.40;;;4.00;;
2305;SDS011;1161;51.922;8.896;2022-08-04T08:21:50;5.30;;;4.00;;
2305;SDS011;1161;51.922;8.896;2022-08-04T08:24:17;10.43;;;4.40;;
2305;SDS011;1161;51.922;8.896;2022-08-04T08:26:44;8.03;;;3.60;;
2305;SDS011;1161;51.922;8.896;2022-08-04T08:29:11;4.37;;;4.07;;
2305;SDS011;1161;51.922;8.896;2022-08-04T08:31:39;7.63;;;4.20;;
2305;SDS011;1161;51.922;8.896;2022-08-04T08:34:07;6.30;;;4.13;;
2305;SDS011;1161;51.922;8.896;2022-08-04T08:36:34;3.67;;;3.37;;
2305;SDS011;1161;51.922;8.896;2022-08-04T08:39:04;5.93;;;4.40;;
2305;SDS011;1161;51.922;8.896;2022-08-04T08:41:50;6.90;;;4.33;;
2305;SDS011;1161;51.922;8.896;2022-08-04T08:44:31;8.43;;;3.80;;
2305;SDS011;1161;51.922;8.896;2022-08-04T08:47:09;4.53;;;4.07;;
2305;SDS011;1161;51.922;8.896;2022-08-04T08:52:46;8.93;;;4.27;;
2305;SDS011;1161;51.922;8.896;2022-08-04T08:55:31;5.50;;;4.13;;
2305;SDS011;1161;51.922;8.896;2022-08-04T08:58:17;3.70;;;3.40;;
2305;SDS011;1161;51.922;8.896;2022-08-04T09:00:50;5.00;;;4.47;;
2305;SDS011;1161;51.922;8.896;2022-08-04T09:03:41;9.60;;;4.70;;
2305;SDS011;1161;51.922;8.896;2022-08-04T09:12:11;4.10;;;3.70;;
2305;SDS011;1161;51.922;8.896;2022-08-04T09:14:43;3.60;;;3.40;;
2305;SDS011;1161;51.922;8.896;2022-08-04T09:17:12;5.57;;;3.93;;
2305;SDS011;1161;51.922;8.896;2022-08-04T09:19:48;4.63;;;3.77;;
2305;SDS011;1161;51.922;8.896;2022-08-04T09:22:21;4.33;;;3.87;;
2305;SDS011;1161;51.922;8.896;2022-08-04T09:24:51;6.93;;;3.10;;
2305;SDS011;1161;51.922;8.896;2022-08-04T09:27:23;8.93;;;4.17;;
2305;SDS011;1161;51.922;8.896;2022-08-04T09:29:55;11.03;;;4.07;;
2305;SDS011;1161;51.922;8.896;2022-08-04T09:32:32;3.67;;;3.47;;
2305;SDS011;1161;51.922;8.896;2022-08-04T09:35:09;3.13;;;2.80;;
2305;SDS011;1161;51.922;8.896;2022-08-04T09:37:45;4.40;;;3.40;;
2305;SDS011;1161;51.922;8.896;2022-08-04T09:40:20;3.53;;;3.33;;
2305;SDS011;1161;51.922;8.896;2022-08-04T09:42:57;8.00;;;3.97;;
2305;SDS011;1161;51.922;8.896;2022-08-04T09:45:32;4.80;;;4.00;;
2305;SDS011;1161;51.922;8.896;2022-08-04T09:48:04;4.63;;;4.20;;
2305;SDS011;1161;51.922;8.896;2022-08-04T09:50:33;6.97;;;3.67;;
2305;SDS011;1161;51.922;8.896;2022-08-04T09:53:12;3.50;;;3.20;;
2305;SDS011;1161;51.922;8.896;2022-08-04T09:55:51;7.83;;;3.93;;
2305;SDS011;1161;51.922;8.896;2022-08-04T09:58:25;3.27;;;2.90;;
2305;SDS011;1161;51.922;8.896;2022-08-04T10:00:59;5.97;;;3.93;;
2305;SDS011;1161;51.922;8.896;2022-08-04T10:03:28;8.17;;;4.10;;
2305;SDS011;1161;51.922;8.896;2022-08-04T10:06:02;17.60;;;3.40;;
2305;SDS011;1161;51.922;8.896;2022-08-04T10:08:42;12.20;;;3.47;;
2305;SDS011;1161;51.922;8.896;2022-08-04T10:11:21;13.93;;;3.83;;
2305;SDS011;1161;51.922;8.896;2022-08-04T10:13:55;8.03;;;3.13;;
2305;SDS011;1161;51.922;8.896;2022-08-04T10:16:30;3.40;;;3.20;;
2305;SDS011;1161;51.922;8.896;2022-08-04T10:19:04;3.57;;;3.37;;
2305;SDS011;1161;51.922;8.896;2022-08-04T10:21:37;3.47;;;3.17;;
2305;SDS011;1161;51.922;8.896;2022-08-04T10:24:19;6.23;;;3.07;;
2305;SDS011;1161;51.922;8.896;2022-08-04T10:26:55;4.37;;;3.30;;
2305;SDS011;1161;51.922;8.896;2022-08-04T10:29:26;8.03;;;3.77;;
2305;SDS011;1161;51.922;8.896;2022-08-04T10:31:58;5.13;;;3.80;;
2305;SDS011;1161;51.922;8.896;2022-08-04T10:34:26;3.37;;;3.17;;
2305;SDS011;1161;51.922;8.896;2022-08-04T10:36:58;2.87;;;2.60;;
2305;SDS011;1161;51.922;8.896;2022-08-04T10:39:35;8.77;;;3.60;;
2305;SDS011;1161;51.922;8.896;2022-08-04T10:42:09;2.73;;;2.00;;
2305;SDS011;1161;51.922;8.896;2022-08-04T10:44:46;4.20;;;2.30;;
2305;SDS011;1161;51.922;8.896;2022-08-04T10:47:21;1.77;;;1.70;;
2305;SDS011;1161;51.922;8.896;2022-08-04T10:49:53;3.83;;;2.30;;
2305;SDS011;1161;51.922;8.896;2022-08-04T10:52:22;2.20;;;2.00;;
2305;SDS011;1161;51.922;8.896;2022-08-04T10:54:59;2.50;;;2.40;;
2305;SDS011;1161;51.922;8.896;2022-08-04T10:57:32;4.60;;;1.83;;
2305;SDS011;1161;51.922;8.896;2022-08-04T11:00:02;2.47;;;2.30;;
2305;SDS011;1161;51.922;8.896;2022-08-04T11:02:35;1.73;;;1.63;;
2305;SDS011;1161;51.922;8.896;2022-08-04T11:05:06;2.43;;;2.23;;
2305;SDS011;1161;51.922;8.896;2022-08-04T11:07:44;3.63;;;2.67;;
2305;SDS011;1161;51.922;8.896;2022-08-04T11:10:15;4.37;;;2.47;;
2305;SDS011;1161;51.922;8.896;2022-08-04T11:12:44;2.27;;;2.17;;
2305;SDS011;1161;51.922;8.896;2022-08-04T11:15:15;2.47;;;2.33;;
2305;SDS011;1161;51.922;8.896;2022-08-04T11:17:45;6.30;;;2.30;;
2305;SDS011;1161;51.922;8.896;2022-08-04T11:20:15;1.77;;;1.77;;
2305;SDS011;1161;51.922;8.896;2022-08-04T11:22:47;2.70;;;2.07;;
2305;SDS011;1161;51.922;8.896;2022-08-04T11:25:19;2.97;;;2.10;;
2305;SDS011;1161;51.922;8.896;2022-08-04T11:27:50;2.20;;;2.03;;
2305;SDS011;1161;51.922;8.896;2022-08-04T11:30:20;4.87;;;2.40;;
2305;SDS011;1161;51.922;8.896;2022-08-04T11:32:51;2.53;;;2.30;;
2305;SDS011;1161;51.922;8.896;2022-08-04T11:35:26;2.43;;;2.00;;
2305;SDS011;1161;51.922;8.896;2022-08-04T11:37:57;3.33;;;2.13;;
2305;SDS011;1161;51.922;8.896;2022-08-04T11:40:28;2.90;;;2.70;;
2305;SDS011;1161;51.922;8.896;2022-08-04T11:43:03;2.33;;;2.23;;
2305;SDS011;1161;51.922;8.896;2022-08-04T11:45:35;3.03;;;2.70;;
2305;SDS011;1161;51.922;8.896;2022-08-04T11:48:04;3.17;;;2.60;;
2305;SDS011;1161;51.922;8.896;2022-08-04T11:50:36;2.73;;;2.30;;
2305;SDS011;1161;51.922;8.896;2022-08-04T11:53:05;2.43;;;2.33;;
2305;SDS011;1161;51.922;8.896;2022-08-04T11:55:34;1.90;;;1.90;;
2305;SDS011;1161;51.922;8.896;2022-08-04T11:58:03;6.03;;;2.60;;
2305;SDS011;1161;51.922;8.896;2022-08-04T12:00:30;3.90;;;2.13;;
2305;SDS011;1161;51.922;8.896;2022-08-04T12:03:00;3.87;;;2.30;;
2305;SDS011;1161;51.922;8.896;2022-08-04T12:05:32;2.67;;;2.47;;
2305;SDS011;1161;51.922;8.896;2022-08-04T12:08:02;2.20;;;2.10;;
2305;SDS011;1161;51.922;8.896;2022-08-04T12:10:44;5.20;;;2.50;;
2305;SDS011;1161;51.922;8.896;2022-08-04T12:13:19;2.03;;;1.93;;
2305;SDS011;1161;51.922;8.896;2022-08-04T12:15:56;2.50;;;2.30;;
2305;SDS011;1161;51.922;8.896;2022-08-04T12:18:26;5.50;;;2.20;;
2305;SDS011;1161;51.922;8.896;2022-08-04T12:20:59;2.33;;;2.23;;
2305;SDS011;1161;51.922;8.896;2022-08-04T12:23:29;2.80;;;2.60;;
2305;SDS011;1161;51.922;8.896;2022-08-04T12:26:02;6.90;;;2.83;;
2305;SDS011;1161;51.922;8.896;2022-08-04T12:28:30;5.43;;;2.40;;
2305;SDS011;1161;51.922;8.896;2022-08-04T12:30:59;2.70;;;2.50;;
2305;SDS011;1161;51.922;8.896;2022-08-04T12:33:30;4.03;;;2.70;;
2305;SDS011;1161;51.922;8.896;2022-08-04T12:36:04;5.07;;;2.53;;
2305;SDS011;1161;51.922;8.896;2022-08-04T12:38:43;5.80;;;2.63;;
2305;SDS011;1161;51.922;8.896;2022-08-04T12:41:17;4.10;;;2.13;;
2305;SDS011;1161;51.922;8.896;2022-08-04T12:43:48;6.60;;;2.27;;
2305;SDS011;1161;51.922;8.896;2022-08-04T12:46:17;2.60;;;2.20;;
2305;SDS011;1161;51.922;8.896;2022-08-04T12:48:46;2.73;;;2.60;;
2305;SDS011;1161;51.922;8.896;2022-08-04T12:51:13;2.10;;;2.00;;
2305;SDS011;1161;51.922;8.896;2022-08-04T12:53:41;3.27;;;2.60;;
2305;SDS011;1161;51.922;8.896;2022-08-04T12:56:08;4.53;;;2.67;;
2305;SDS011;1161;51.922;8.896;2022-08-04T12:58:39;4.13;;;2.80;;
2305;SDS011;1161;51.922;8.896;2022-08-04T13:01:07;3.70;;;2.77;;
2305;SDS011;1161;51.922;8.896;2022-08-04T13:03:36;2.17;;;2.07;;
2305;SDS011;1161;51.922;8.896;2022-08-04T13:06:05;4.83;;;2.27;;
2305;SDS011;1161;51.922;8.896;2022-08-04T13:08:32;3.27;;;2.70;;
2305;SDS011;1161;51.922;8.896;2022-08-04T13:11:01;4.90;;;2.23;;
2305;SDS011;1161;51.922;8.896;2022-08-04T13:13:30;2.77;;;2.57;;
2305;SDS011;1161;51.922;8.896;2022-08-04T13:16:02;2.60;;;2.40;;
2305;SDS011;1161;51.922;8.896;2022-08-04T13:18:30;8.10;;;3.17;;
2305;SDS011;1161;51.922;8.896;2022-08-04T13:21:11;4.00;;;2.40;;
2305;SDS011;1161;51.922;8.896;2022-08-04T13:23:39;6.93;;;2.40;;
2305;SDS011;1161;51.922;8.896;2022-08-04T13:26:06;3.50;;;2.77;;
2305;SDS011;1161;51.922;8.896;2022-08-04T13:28:33;6.60;;;2.70;;
2305;SDS011;1161;51.922;8.896;2022-08-04T13:31:06;4.07;;;2.37;;
2305;SDS011;1161;51.922;8.896;2022-08-04T13:33:37;2.97;;;2.03;;
2305;SDS011;1161;51.922;8.896;2022-08-04T13:36:05;2.27;;;2.17;;
2305;SDS011;1161;51.922;8.896;2022-08-04T13:38:33;3.00;;;2.80;;
2305;SDS011;1161;51.922;8.896;2022-08-04T13:41:02;6.57;;;2.70;;
2305;SDS011;1161;51.922;8.896;2022-08-04T13:43:30;7.00;;;1.90;;
2305;SDS011;1161;51.922;8.896;2022-08-04T13:45:59;5.63;;;1.87;;
2305;SDS011;1161;51.922;8.896;2022-08-04T13:48:30;5.17;;;2.30;;
2305;SDS011;1161;51.922;8.896;2022-08-04T13:51:00;4.77;;;2.00;;
2305;SDS011;1161;51.922;8.896;2022-08-04T13:53:29;3.30;;;2.03;;
2305;SDS011;1161;51.922;8.896;2022-08-04T13:55:56;4.33;;;1.40;;
2305;SDS011;1161;51.922;8.896;2022-08-04T13:58:25;6.80;;;2.10;;
2305;SDS011;1161;51.922;8.896;2022-08-04T14:00:57;1.87;;;1.77;;
2305;SDS011;1161;51.922;8.896;2022-08-04T14:03:27;9.30;;;2.10;;
2305;SDS011;1161;51.922;8.896;2022-08-04T14:06:09;5.23;;;2.00;;
2305;SDS011;1161;51.922;8.896;2022-08-04T14:08:46;2.40;;;1.70;;
2305;SDS011;1161;51.922;8.896;2022-08-04T14:11:17;1.67;;;1.60;;
2305;SDS011;1161;51.922;8.896;2022-08-04T14:13:45;2.10;;;2.00;;
2305;SDS011;1161;51.922;8.896;2022-08-04T14:16:12;8.23;;;1.97;;
2305;SDS011;1161;51.922;8.896;2022-08-04T14:18:40;12.50;;;1.87;;
2305;SDS011;1161;51.922;8.896;2022-08-04T14:21:07;10.20;;;2.20;;
2305;SDS011;1161;51.922;8.896;2022-08-04T14:23:40;2.33;;;2.00;;
2305;SDS011;1161;51.922;8.896;2022-08-04T14:26:14;2.40;;;1.43;;
2305;SDS011;1161;51.922;8.896;2022-08-04T14:28:45;4.50;;;2.00;;
2305;SDS011;1161;51.922;8.896;2022-08-04T14:31:12;9.33;;;2.03;;
2305;SDS011;1161;51.922;8.896;2022-08-04T14:33:40;2.67;;;2.30;;
2305;SDS011;1161;51.922;8.896;2022-08-04T14:36:10;2.70;;;2.23;;
2305;SDS011;1161;51.922;8.896;2022-08-04T14:38:41;5.70;;;2.33;;
2305;SDS011;1161;51.922;8.896;2022-08-04T14:41:09;5.43;;;2.23;;
2305;SDS011;1161;51.922;8.896;2022-08-04T14:43:39;4.70;;;2.70;;
2305;SDS011;1161;51.922;8.896;2022-08-04T14:46:07;2.83;;;2.73;;
2305;SDS011;1161;51.922;8.896;2022-08-04T14:48:36;5.43;;;3.60;;
2305;SDS011;1161;51.922;8.896;2022-08-04T14:51:04;7.90;;;3.43;;
2305;SDS011;1161;51.922;8.896;2022-08-04T14:53:32;7.93;;;3.70;;
2305;SDS011;1161;51.922;8.896;2022-08-04T14:56:03;11.03;;;3.53;;
2305;SDS011;1161;51.922;8.896;2022-08-04T14:58:31;9.53;;;3.77;;
2305;SDS011;1161;51.922;8.896;2022-08-04T15:01:00;7.33;;;3.40;;
2305;SDS011;1161;51.922;8.896;2022-08-04T15:03:27;13.23;;;3.63;;
2305;SDS011;1161;51.922;8.896;2022-08-04T15:05:55;10.23;;;3.30;;
2305;SDS011;1161;51.922;8.896;2022-08-04T15:08:23;4.97;;;3.10;;
2305;SDS011;1161;51.922;8.896;2022-08-04T15:10:53;6.50;;;3.13;;
2305;SDS011;1161;51.922;8.896;2022-08-04T15:13:23;6.73;;;3.43;;
2305;SDS011;1161;51.922;8.896;2022-08-04T15:15:53;11.60;;;3.20;;
2305;SDS011;1161;51.922;8.896;2022-08-04T15:18:21;4.50;;;3.07;;
2305;SDS011;1161;51.922;8.896;2022-08-04T15:20:47;2.80;;;2.60;;
2305;SDS011;1161;51.922;8.896;2022-08-04T15:23:14;2.77;;;2.27;;
2305;SDS011;1161;51.922;8.896;2022-08-04T15:25:42;11.07;;;2.90;;
2305;SDS011;1161;51.922;8.896;2022-08-04T15:28:14;3.10;;;2.80;;
2305;SDS011;1161;51.922;8.896;2022-08-04T15:30:41;4.50;;;2.60;;
2305;SDS011;1161;51.922;8.896;2022-08-04T15:33:10;10.73;;;3.37;;
2305;SDS011;1161;51.922;8.896;2022-08-04T15:35:38;9.80;;;2.90;;
2305;SDS011;1161;51.922;8.896;2022-08-04T15:38:07;9.93;;;4.43;;
2305;SDS011;1161;51.922;8.896;2022-08-04T15:40:38;18.67;;;4.80;;
2305;SDS011;1161;51.922;8.896;2022-08-04T15:43:15;5.33;;;3.90;;
2305;SDS011;1161;51.922;8.896;2022-08-04T15:45:52;8.70;;;4.67;;
2305;SDS011;1161;51.922;8.896;2022-08-04T15:48:23;17.67;;;4.60;;
2305;SDS011;1161;51.922;8.896;2022-08-04T15:51:00;15.60;;;4.73;;
2305;SDS011;1161;51.922;8.896;2022-08-04T15:53:30;7.00;;;4.07;;
2305;SDS011;1161;51.922;8.896;2022-08-04T15:55:58;11.13;;;5.23;;
2305;SDS011;1161;51.922;8.896;2022-08-04T15:58:26;17.67;;;5.77;;
2305;SDS011;1161;51.922;8.896;2022-08-04T16:01:14;9.73;;;5.40;;
2305;SDS011;1161;51.922;8.896;2022-08-04T16:03:45;17.57;;;6.37;;
2305;SDS011;1161;51.922;8.896;2022-08-04T16:09:26;9.80;;;6.20;;
2305;SDS011;1161;51.922;8.896;2022-08-04T16:11:53;8.00;;;4.30;;
2305;SDS011;1161;51.922;8.896;2022-08-04T16:14:31;10.80;;;4.30;;
2305;SDS011;1161;51.922;8.896;2022-08-04T16:17:13;8.37;;;5.37;;
2305;SDS011;1161;51.922;8.896;2022-08-04T16:19:45;12.80;;;4.43;;
2305;SDS011;1161;51.922;8.896;2022-08-04T16:22:33;18.87;;;4.80;;